sensor_id;sensor_type;location;lat;lon;timestamp;P1;durP1;ratioP1;P2;durP2;ratioP2
82292;SDS011;71892;14.836;105.234;2024-03-06T00:02:19;67.22;;;44.53;;
82292;SDS011;71892;14.836;105.234;2024-03-06T00:04:46;70.22;;;46.70;;
82292;SDS011;71892;14.836;105.234;2024-03-06T00:07:12;68.10;;;44.42;;
82292;SDS011;71892;14.836;105.234;2024-03-06T00:09:39;66.60;;;46.75;;
82292;SDS011;71892;14.836;105.234;2024-03-06T00:12:05;59.15;;;43.15;;
82292;SDS011;71892;14.836;105.234;2024-03-06T00:14:32;62.15;;;45.35;;
82292;SDS011;71892;14.836;105.234;2024-03-06T00:16:58;66.95;;;44.70;;
82292;SDS011;71892;14.836;105.234;2024-03-06T00:19:25;66.60;;;43.53;;
82292;SDS011;71892;14.836;105.234;2024-03-06T00:21:52;71.85;;;46.42;;
82292;SDS011;71892;14.836;105.234;2024-03-06T00:24:18;65.72;;;45.90;;
82292;SDS011;71892;14.836;105.234;2024-03-06T00:26:45;72.40;;;46.50;;
82292;SDS011;71892;14.836;105.234;2024-03-06T00:29:12;66.93;;;49.30;;
82292;SDS011;71892;14.836;105.234;2024-03-06T00:31:43;71.32;;;47.90;;
82292;SDS011;71892;14.836;105.234;2024-03-06T00:34:11;73.15;;;48.78;;
82292;SDS011;71892;14.836;105.234;2024-03-06T00:36:41;74.72;;;53.03;;
82292;SDS011;71892;14.836;105.234;2024-03-06T00:39:10;72.60;;;46.30;;
82292;SDS011;71892;14.836;105.234;2024-03-06T00:44:06;74.25;;;49.30;;
82292;SDS011;71892;14.836;105.234;2024-03-06T00:46:33;62.55;;;47.47;;
82292;SDS011;71892;14.836;105.234;2024-03-06T00:49:00;74.40;;;52.15;;
82292;SDS011;71892;14.836;105.234;2024-03-06T00:51:26;73.25;;;51.85;;
82292;SDS011;71892;14.836;105.234;2024-03-06T00:53:53;71.40;;;50.80;;
82292;SDS011;71892;14.836;105.234;2024-03-06T00:56:21;70.95;;;53.63;;
82292;SDS011;71892;14.836;105.234;2024-03-06T00:58:49;73.00;;;53.10;;
82292;SDS011;71892;14.836;105.234;2024-03-06T01:01:15;63.90;;;48.38;;
82292;SDS011;71892;14.836;105.234;2024-03-06T01:03:45;71.53;;;49.50;;
82292;SDS011;71892;14.836;105.234;2024-03-06T01:06:11;68.40;;;48.65;;
82292;SDS011;71892;14.836;105.234;2024-03-06T01:08:38;80.72;;;53.75;;
82292;SDS011;71892;14.836;105.234;2024-03-06T01:11:04;69.53;;;51.15;;
82292;SDS011;71892;14.836;105.234;2024-03-06T01:13:32;70.13;;;51.05;;
82292;SDS011;71892;14.836;105.234;2024-03-06T01:15:58;72.18;;;48.70;;
82292;SDS011;71892;14.836;105.234;2024-03-06T01:18:25;73.00;;;48.00;;
82292;SDS011;71892;14.836;105.234;2024-03-06T01:20:52;67.38;;;45.55;;
82292;SDS011;71892;14.836;105.234;2024-03-06T01:23:18;67.15;;;47.60;;
82292;SDS011;71892;14.836;105.234;2024-03-06T01:25:44;70.03;;;46.85;;
82292;SDS011;71892;14.836;105.234;2024-03-06T01:28:11;66.07;;;48.47;;
82292;SDS011;71892;14.836;105.234;2024-03-06T01:30:38;66.10;;;46.38;;
82292;SDS011;71892;14.836;105.234;2024-03-06T01:33:04;66.45;;;43.50;;
82292;SDS011;71892;14.836;105.234;2024-03-06T01:35:31;59.47;;;44.58;;
82292;SDS011;71892;14.836;105.234;2024-03-06T01:37:58;71.40;;;44.55;;
82292;SDS011;71892;14.836;105.234;2024-03-06T01:40:26;55.83;;;42.80;;
82292;SDS011;71892;14.836;105.234;2024-03-06T01:42:54;69.88;;;47.35;;
82292;SDS011;71892;14.836;105.234;2024-03-06T01:45:21;60.05;;;45.03;;
82292;SDS011;71892;14.836;105.234;2024-03-06T01:47:48;62.40;;;46.13;;
82292;SDS011;71892;14.836;105.234;2024-03-06T01:50:16;61.45;;;41.55;;
82292;SDS011;71892;14.836;105.234;2024-03-06T01:52:43;53.53;;;38.92;;
82292;SDS011;71892;14.836;105.234;2024-03-06T01:55:10;45.58;;;36.90;;
82292;SDS011;71892;14.836;105.234;2024-03-06T01:57:38;55.28;;;35.88;;
82292;SDS011;71892;14.836;105.234;2024-03-06T02:00:06;50.08;;;37.35;;
82292;SDS011;71892;14.836;105.234;2024-03-06T02:02:40;50.92;;;36.65;;
82292;SDS011;71892;14.836;105.234;2024-03-06T02:05:08;40.92;;;30.88;;
82292;SDS011;71892;14.836;105.234;2024-03-06T02:07:35;42.50;;;30.90;;
82292;SDS011;71892;14.836;105.234;2024-03-06T02:10:05;42.83;;;31.55;;
82292;SDS011;71892;14.836;105.234;2024-03-06T02:12:32;42.88;;;30.73;;
82292;SDS011;71892;14.836;105.234;2024-03-06T02:14:59;42.05;;;29.20;;
82292;SDS011;71892;14.836;105.234;2024-03-06T02:17:28;39.28;;;29.05;;
82292;SDS011;71892;14.836;105.234;2024-03-06T02:19:55;35.72;;;27.63;;
82292;SDS011;71892;14.836;105.234;2024-03-06T02:22:23;41.90;;;27.35;;
82292;SDS011;71892;14.836;105.234;2024-03-06T02:24:50;42.47;;;24.52;;
82292;SDS011;71892;14.836;105.234;2024-03-06T02:27:16;34.97;;;24.13;;
82292;SDS011;71892;14.836;105.234;2024-03-06T02:29:43;39.80;;;23.55;;
82292;SDS011;71892;14.836;105.234;2024-03-06T02:32:12;39.60;;;26.13;;
82292;SDS011;71892;14.836;105.234;2024-03-06T02:34:43;35.25;;;25.92;;
82292;SDS011;71892;14.836;105.234;2024-03-06T02:37:10;40.17;;;27.45;;
82292;SDS011;71892;14.836;105.234;2024-03-06T02:39:39;35.90;;;23.30;;
82292;SDS011;71892;14.836;105.234;2024-03-06T02:42:09;40.60;;;25.73;;
82292;SDS011;71892;14.836;105.234;2024-03-06T02:44:35;35.28;;;25.70;;
82292;SDS011;71892;14.836;105.234;2024-03-06T02:47:02;38.17;;;26.02;;
82292;SDS011;71892;14.836;105.234;2024-03-06T02:49:29;40.50;;;27.42;;
82292;SDS011;71892;14.836;105.234;2024-03-06T02:51:56;38.63;;;26.05;;
82292;SDS011;71892;14.836;105.234;2024-03-06T02:54:23;40.33;;;26.17;;
82292;SDS011;71892;14.836;105.234;2024-03-06T02:56:51;44.42;;;26.65;;
82292;SDS011;71892;14.836;105.234;2024-03-06T02:59:18;43.13;;;30.90;;
82292;SDS011;71892;14.836;105.234;2024-03-06T03:01:45;43.70;;;29.63;;
82292;SDS011;71892;14.836;105.234;2024-03-06T03:04:11;44.28;;;29.85;;
82292;SDS011;71892;14.836;105.234;2024-03-06T03:06:38;44.10;;;29.35;;
82292;SDS011;71892;14.836;105.234;2024-03-06T03:09:05;38.53;;;26.25;;
82292;SDS011;71892;14.836;105.234;2024-03-06T03:11:31;38.20;;;25.52;;
82292;SDS011;71892;14.836;105.234;2024-03-06T03:13:58;37.17;;;24.73;;
82292;SDS011;71892;14.836;105.234;2024-03-06T03:16:24;38.75;;;26.35;;
82292;SDS011;71892;14.836;105.234;2024-03-06T03:18:51;40.65;;;25.50;;
82292;SDS011;71892;14.836;105.234;2024-03-06T03:21:18;33.25;;;25.52;;
82292;SDS011;71892;14.836;105.234;2024-03-06T03:23:47;37.17;;;25.65;;
82292;SDS011;71892;14.836;105.234;2024-03-06T03:26:15;33.05;;;25.15;;
82292;SDS011;71892;14.836;105.234;2024-03-06T03:28:41;36.92;;;24.88;;
82292;SDS011;71892;14.836;105.234;2024-03-06T03:31:08;37.90;;;25.15;;
82292;SDS011;71892;14.836;105.234;2024-03-06T03:33:36;38.25;;;25.90;;
82292;SDS011;71892;14.836;105.234;2024-03-06T03:36:06;35.33;;;24.73;;
82292;SDS011;71892;14.836;105.234;2024-03-06T03:38:33;33.25;;;22.98;;
82292;SDS011;71892;14.836;105.234;2024-03-06T03:41:12;36.05;;;20.75;;
82292;SDS011;71892;14.836;105.234;2024-03-06T03:43:39;32.13;;;22.40;;
82292;SDS011;71892;14.836;105.234;2024-03-06T03:46:06;35.20;;;21.90;;
82292;SDS011;71892;14.836;105.234;2024-03-06T03:48:33;30.50;;;21.27;;
82292;SDS011;71892;14.836;105.234;2024-03-06T03:51:05;33.63;;;22.42;;
82292;SDS011;71892;14.836;105.234;2024-03-06T03:53:32;31.08;;;22.65;;
82292;SDS011;71892;14.836;105.234;2024-03-06T03:55:59;28.33;;;21.70;;
82292;SDS011;71892;14.836;105.234;2024-03-06T03:58:26;33.10;;;21.10;;
82292;SDS011;71892;14.836;105.234;2024-03-06T04:00:52;35.08;;;21.95;;
82292;SDS011;71892;14.836;105.234;2024-03-06T04:03:20;24.67;;;19.83;;
82292;SDS011;71892;14.836;105.234;2024-03-06T04:05:48;25.80;;;20.73;;
82292;SDS011;71892;14.836;105.234;2024-03-06T04:08:15;30.02;;;22.02;;
82292;SDS011;71892;14.836;105.234;2024-03-06T04:10:42;30.25;;;21.00;;
82292;SDS011;71892;14.836;105.234;2024-03-06T04:13:12;28.55;;;20.25;;
82292;SDS011;71892;14.836;105.234;2024-03-06T04:15:41;30.67;;;20.40;;
82292;SDS011;71892;14.836;105.234;2024-03-06T04:18:07;28.88;;;19.40;;
82292;SDS011;71892;14.836;105.234;2024-03-06T04:20:34;29.75;;;20.52;;
82292;SDS011;71892;14.836;105.234;2024-03-06T04:23:01;36.67;;;29.85;;
82292;SDS011;71892;14.836;105.234;2024-03-06T04:25:27;28.67;;;20.88;;
82292;SDS011;71892;14.836;105.234;2024-03-06T04:27:54;28.20;;;20.70;;
82292;SDS011;71892;14.836;105.234;2024-03-06T04:30:21;31.25;;;17.75;;
82292;SDS011;71892;14.836;105.234;2024-03-06T04:32:47;36.47;;;19.95;;
82292;SDS011;71892;14.836;105.234;2024-03-06T04:35:14;28.00;;;19.23;;
82292;SDS011;71892;14.836;105.234;2024-03-06T04:37:41;28.38;;;19.83;;
82292;SDS011;71892;14.836;105.234;2024-03-06T04:40:09;28.70;;;19.33;;
82292;SDS011;71892;14.836;105.234;2024-03-06T04:42:35;25.13;;;18.67;;
82292;SDS011;71892;14.836;105.234;2024-03-06T04:45:11;26.85;;;18.95;;
82292;SDS011;71892;14.836;105.234;2024-03-06T04:47:40;25.63;;;18.55;;
82292;SDS011;71892;14.836;105.234;2024-03-06T04:50:10;31.58;;;20.00;;
82292;SDS011;71892;14.836;105.234;2024-03-06T04:52:39;29.65;;;17.75;;
82292;SDS011;71892;14.836;105.234;2024-03-06T04:55:07;24.00;;;16.52;;
82292;SDS011;71892;14.836;105.234;2024-03-06T04:57:38;24.40;;;16.92;;
82292;SDS011;71892;14.836;105.234;2024-03-06T05:00:06;29.45;;;17.13;;
82292;SDS011;71892;14.836;105.234;2024-03-06T05:02:34;38.13;;;18.08;;
82292;SDS011;71892;14.836;105.234;2024-03-06T05:05:03;36.78;;;19.52;;
82292;SDS011;71892;14.836;105.234;2024-03-06T05:07:30;28.05;;;19.50;;
82292;SDS011;71892;14.836;105.234;2024-03-06T05:09:57;25.15;;;18.75;;
82292;SDS011;71892;14.836;105.234;2024-03-06T05:12:25;28.75;;;18.10;;
82292;SDS011;71892;14.836;105.234;2024-03-06T05:14:52;24.80;;;17.20;;
82292;SDS011;71892;14.836;105.234;2024-03-06T05:17:19;34.78;;;19.20;;
82292;SDS011;71892;14.836;105.234;2024-03-06T05:19:46;24.73;;;16.67;;
82292;SDS011;71892;14.836;105.234;2024-03-06T05:22:14;25.40;;;15.77;;
82292;SDS011;71892;14.836;105.234;2024-03-06T05:24:42;17.67;;;14.57;;
82292;SDS011;71892;14.836;105.234;2024-03-06T05:27:09;18.88;;;14.73;;
82292;SDS011;71892;14.836;105.234;2024-03-06T05:29:38;25.65;;;14.93;;
82292;SDS011;71892;14.836;105.234;2024-03-06T05:32:05;20.00;;;14.40;;
82292;SDS011;71892;14.836;105.234;2024-03-06T05:34:34;21.80;;;15.65;;
82292;SDS011;71892;14.836;105.234;2024-03-06T05:37:01;23.63;;;15.02;;
82292;SDS011;71892;14.836;105.234;2024-03-06T05:39:31;19.27;;;13.90;;
82292;SDS011;71892;14.836;105.234;2024-03-06T05:42:02;21.00;;;13.23;;
82292;SDS011;71892;14.836;105.234;2024-03-06T05:44:32;16.73;;;13.38;;
82292;SDS011;71892;14.836;105.234;2024-03-06T05:47:01;23.88;;;13.65;;
82292;SDS011;71892;14.836;105.234;2024-03-06T05:49:28;16.85;;;13.20;;
82292;SDS011;71892;14.836;105.234;2024-03-06T05:51:55;15.43;;;12.80;;
82292;SDS011;71892;14.836;105.234;2024-03-06T05:54:22;19.45;;;13.38;;
82292;SDS011;71892;14.836;105.234;2024-03-06T05:56:50;17.67;;;12.82;;
82292;SDS011;71892;14.836;105.234;2024-03-06T05:59:19;23.90;;;14.02;;
82292;SDS011;71892;14.836;105.234;2024-03-06T06:01:45;19.83;;;13.68;;
82292;SDS011;71892;14.836;105.234;2024-03-06T06:04:13;21.90;;;13.32;;
82292;SDS011;71892;14.836;105.234;2024-03-06T06:06:40;22.40;;;13.73;;
82292;SDS011;71892;14.836;105.234;2024-03-06T06:09:10;17.85;;;13.13;;
82292;SDS011;71892;14.836;105.234;2024-03-06T06:11:43;22.90;;;12.68;;
82292;SDS011;71892;14.836;105.234;2024-03-06T06:14:09;19.67;;;12.73;;
82292;SDS011;71892;14.836;105.234;2024-03-06T06:16:37;18.65;;;11.93;;
82292;SDS011;71892;14.836;105.234;2024-03-06T06:19:06;24.15;;;11.98;;
82292;SDS011;71892;14.836;105.234;2024-03-06T06:21:32;18.77;;;13.10;;
82292;SDS011;71892;14.836;105.234;2024-03-06T06:24:06;22.30;;;12.57;;
82292;SDS011;71892;14.836;105.234;2024-03-06T06:26:33;20.30;;;11.30;;
82292;SDS011;71892;14.836;105.234;2024-03-06T06:28:59;18.20;;;12.07;;
82292;SDS011;71892;14.836;105.234;2024-03-06T06:31:26;20.88;;;12.55;;
82292;SDS011;71892;14.836;105.234;2024-03-06T06:33:53;17.00;;;13.10;;
82292;SDS011;71892;14.836;105.234;2024-03-06T06:36:19;17.95;;;11.68;;
82292;SDS011;71892;14.836;105.234;2024-03-06T06:38:46;18.75;;;12.40;;
82292;SDS011;71892;14.836;105.234;2024-03-06T06:41:14;22.02;;;13.63;;
82292;SDS011;71892;14.836;105.234;2024-03-06T06:43:41;21.67;;;11.68;;
82292;SDS011;71892;14.836;105.234;2024-03-06T06:46:08;24.38;;;12.65;;
82292;SDS011;71892;14.836;105.234;2024-03-06T06:48:34;16.55;;;12.13;;
82292;SDS011;71892;14.836;105.234;2024-03-06T06:51:01;20.92;;;12.45;;
82292;SDS011;71892;14.836;105.234;2024-03-06T06:53:31;17.30;;;12.15;;
82292;SDS011;71892;14.836;105.234;2024-03-06T06:56:00;14.70;;;11.45;;
82292;SDS011;71892;14.836;105.234;2024-03-06T06:58:27;19.10;;;12.35;;
82292;SDS011;71892;14.836;105.234;2024-03-06T07:00:53;16.23;;;11.63;;
82292;SDS011;71892;14.836;105.234;2024-03-06T07:03:20;15.80;;;11.82;;
82292;SDS011;71892;14.836;105.234;2024-03-06T07:05:48;16.67;;;11.77;;
82292;SDS011;71892;14.836;105.234;2024-03-06T07:08:15;19.55;;;13.23;;
82292;SDS011;71892;14.836;105.234;2024-03-06T07:10:42;18.60;;;11.88;;
82292;SDS011;71892;14.836;105.234;2024-03-06T07:13:08;17.67;;;11.50;;
82292;SDS011;71892;14.836;105.234;2024-03-06T07:15:35;15.98;;;11.77;;
82292;SDS011;71892;14.836;105.234;2024-03-06T07:18:01;19.35;;;11.90;;
82292;SDS011;71892;14.836;105.234;2024-03-06T07:20:28;18.58;;;12.75;;
82292;SDS011;71892;14.836;105.234;2024-03-06T07:25:23;18.52;;;13.07;;
82292;SDS011;71892;14.836;105.234;2024-03-06T07:27:49;17.90;;;12.77;;
82292;SDS011;71892;14.836;105.234;2024-03-06T07:30:16;20.52;;;12.00;;
82292;SDS011;71892;14.836;105.234;2024-03-06T07:32:42;20.40;;;12.80;;
82292;SDS011;71892;14.836;105.234;2024-03-06T07:35:09;16.17;;;12.30;;
82292;SDS011;71892;14.836;105.234;2024-03-06T07:37:35;23.58;;;13.10;;
82292;SDS011;71892;14.836;105.234;2024-03-06T07:40:02;21.33;;;12.90;;
82292;SDS011;71892;14.836;105.234;2024-03-06T07:42:30;20.88;;;13.63;;
82292;SDS011;71892;14.836;105.234;2024-03-06T07:44:59;18.52;;;13.10;;
82292;SDS011;71892;14.836;105.234;2024-03-06T07:47:26;19.00;;;13.10;;
82292;SDS011;71892;14.836;105.234;2024-03-06T07:49:53;20.58;;;13.40;;
82292;SDS011;71892;14.836;105.234;2024-03-06T07:52:19;17.88;;;13.05;;
82292;SDS011;71892;14.836;105.234;2024-03-06T07:54:48;18.60;;;13.65;;
82292;SDS011;71892;14.836;105.234;2024-03-06T07:57:15;19.35;;;13.20;;
82292;SDS011;71892;14.836;105.234;2024-03-06T07:59:41;16.10;;;12.25;;
82292;SDS011;71892;14.836;105.234;2024-03-06T08:02:07;18.38;;;13.60;;
82292;SDS011;71892;14.836;105.234;2024-03-06T08:04:34;18.38;;;13.07;;
82292;SDS011;71892;14.836;105.234;2024-03-06T08:07:02;21.25;;;13.35;;
82292;SDS011;71892;14.836;105.234;2024-03-06T08:09:28;18.98;;;12.95;;
82292;SDS011;71892;14.836;105.234;2024-03-06T08:11:55;19.27;;;13.00;;
82292;SDS011;71892;14.836;105.234;2024-03-06T08:14:21;14.85;;;11.77;;
82292;SDS011;71892;14.836;105.234;2024-03-06T08:16:49;17.67;;;12.25;;
82292;SDS011;71892;14.836;105.234;2024-03-06T08:19:16;17.92;;;11.13;;
82292;SDS011;71892;14.836;105.234;2024-03-06T08:21:42;16.85;;;11.45;;
82292;SDS011;71892;14.836;105.234;2024-03-06T08:24:08;16.73;;;12.43;;
82292;SDS011;71892;14.836;105.234;2024-03-06T08:26:36;13.90;;;10.90;;
82292;SDS011;71892;14.836;105.234;2024-03-06T08:29:03;17.40;;;11.43;;
82292;SDS011;71892;14.836;105.234;2024-03-06T08:31:29;15.02;;;11.32;;
82292;SDS011;71892;14.836;105.234;2024-03-06T08:33:56;16.50;;;10.52;;
82292;SDS011;71892;14.836;105.234;2024-03-06T08:36:25;15.35;;;10.20;;
82292;SDS011;71892;14.836;105.234;2024-03-06T08:38:52;16.80;;;10.77;;
82292;SDS011;71892;14.836;105.234;2024-03-06T08:41:19;19.27;;;11.52;;
82292;SDS011;71892;14.836;105.234;2024-03-06T08:43:45;18.65;;;11.55;;
82292;SDS011;71892;14.836;105.234;2024-03-06T08:46:12;16.35;;;11.10;;
82292;SDS011;71892;14.836;105.234;2024-03-06T08:48:38;16.90;;;10.55;;
82292;SDS011;71892;14.836;105.234;2024-03-06T08:51:05;18.60;;;12.15;;
82292;SDS011;71892;14.836;105.234;2024-03-06T08:53:36;19.92;;;11.30;;
82292;SDS011;71892;14.836;105.234;2024-03-06T08:56:06;18.52;;;11.52;;
82292;SDS011;71892;14.836;105.234;2024-03-06T08:58:32;14.88;;;11.13;;
82292;SDS011;71892;14.836;105.234;2024-03-06T09:00:59;21.13;;;11.00;;
82292;SDS011;71892;14.836;105.234;2024-03-06T09:03:25;16.52;;;11.55;;
82292;SDS011;71892;14.836;105.234;2024-03-06T09:05:52;17.48;;;10.70;;
82292;SDS011;71892;14.836;105.234;2024-03-06T09:08:19;17.25;;;12.23;;
82292;SDS011;71892;14.836;105.234;2024-03-06T09:10:47;16.02;;;11.60;;
82292;SDS011;71892;14.836;105.234;2024-03-06T09:13:14;17.38;;;10.70;;
82292;SDS011;71892;14.836;105.234;2024-03-06T09:15:43;18.75;;;11.27;;
82292;SDS011;71892;14.836;105.234;2024-03-06T09:18:13;18.90;;;11.13;;
82292;SDS011;71892;14.836;105.234;2024-03-06T09:20:42;13.43;;;11.25;;
82292;SDS011;71892;14.836;105.234;2024-03-06T09:23:08;22.30;;;11.65;;
82292;SDS011;71892;14.836;105.234;2024-03-06T09:25:35;21.00;;;11.77;;
82292;SDS011;71892;14.836;105.234;2024-03-06T09:28:01;16.05;;;11.15;;
82292;SDS011;71892;14.836;105.234;2024-03-06T09:30:30;19.40;;;11.80;;
82292;SDS011;71892;14.836;105.234;2024-03-06T09:32:57;19.15;;;11.45;;
82292;SDS011;71892;14.836;105.234;2024-03-06T09:35:23;13.90;;;10.73;;
82292;SDS011;71892;14.836;105.234;2024-03-06T09:37:50;15.82;;;11.13;;
82292;SDS011;71892;14.836;105.234;2024-03-06T09:40:22;19.98;;;11.45;;
82292;SDS011;71892;14.836;105.234;2024-03-06T09:42:52;18.50;;;12.05;;
82292;SDS011;71892;14.836;105.234;2024-03-06T09:45:24;18.77;;;12.07;;
82292;SDS011;71892;14.836;105.234;2024-03-06T09:47:50;16.63;;;11.23;;
82292;SDS011;71892;14.836;105.234;2024-03-06T09:50:17;17.02;;;11.13;;
82292;SDS011;71892;14.836;105.234;2024-03-06T09:52:50;16.92;;;12.50;;
82292;SDS011;71892;14.836;105.234;2024-03-06T09:55:21;18.52;;;12.38;;
82292;SDS011;71892;14.836;105.234;2024-03-06T09:57:50;19.45;;;11.82;;
82292;SDS011;71892;14.836;105.234;2024-03-06T10:00:17;18.65;;;13.15;;
82292;SDS011;71892;14.836;105.234;2024-03-06T10:02:50;14.60;;;11.90;;
82292;SDS011;71892;14.836;105.234;2024-03-06T10:05:25;17.80;;;12.38;;
82292;SDS011;71892;14.836;105.234;2024-03-06T10:07:52;19.58;;;12.13;;
82292;SDS011;71892;14.836;105.234;2024-03-06T10:10:22;18.48;;;11.63;;
82292;SDS011;71892;14.836;105.234;2024-03-06T10:12:48;17.35;;;12.02;;
82292;SDS011;71892;14.836;105.234;2024-03-06T10:15:15;23.23;;;13.25;;
82292;SDS011;71892;14.836;105.234;2024-03-06T10:17:45;18.80;;;12.55;;
82292;SDS011;71892;14.836;105.234;2024-03-06T10:20:21;24.83;;;13.50;;
82292;SDS011;71892;14.836;105.234;2024-03-06T10:22:49;21.52;;;12.30;;
82292;SDS011;71892;14.836;105.234;2024-03-06T10:25:20;19.05;;;12.02;;
82292;SDS011;71892;14.836;105.234;2024-03-06T10:28:08;21.45;;;11.85;;
82292;SDS011;71892;14.836;105.234;2024-03-06T10:30:36;22.75;;;12.98;;
82292;SDS011;71892;14.836;105.234;2024-03-06T10:33:09;18.27;;;12.32;;
82292;SDS011;71892;14.836;105.234;2024-03-06T10:35:40;23.80;;;12.60;;
82292;SDS011;71892;14.836;105.234;2024-03-06T10:38:08;24.42;;;13.43;;
82292;SDS011;71892;14.836;105.234;2024-03-06T10:40:40;14.90;;;12.43;;
82292;SDS011;71892;14.836;105.234;2024-03-06T10:43:08;26.15;;;13.73;;
82292;SDS011;71892;14.836;105.234;2024-03-06T10:45:46;22.33;;;14.57;;
82292;SDS011;71892;14.836;105.234;2024-03-06T10:48:14;19.83;;;13.32;;
82292;SDS011;71892;14.836;105.234;2024-03-06T10:50:44;29.05;;;13.73;;
82292;SDS011;71892;14.836;105.234;2024-03-06T10:53:12;21.35;;;15.07;;
82292;SDS011;71892;14.836;105.234;2024-03-06T10:55:42;22.73;;;14.55;;
82292;SDS011;71892;14.836;105.234;2024-03-06T10:58:12;23.55;;;13.77;;
82292;SDS011;71892;14.836;105.234;2024-03-06T11:00:39;34.80;;;14.75;;
82292;SDS011;71892;14.836;105.234;2024-03-06T11:03:13;20.63;;;13.65;;
82292;SDS011;71892;14.836;105.234;2024-03-06T11:05:41;24.52;;;14.73;;
82292;SDS011;71892;14.836;105.234;2024-03-06T11:10:38;35.20;;;18.80;;
82292;SDS011;71892;14.836;105.234;2024-03-06T11:15:51;30.13;;;15.93;;
82292;SDS011;71892;14.836;105.234;2024-03-06T11:23:33;41.72;;;16.00;;
82292;SDS011;71892;14.836;105.234;2024-03-06T11:26:01;38.60;;;20.60;;
82292;SDS011;71892;14.836;105.234;2024-03-06T11:28:32;78.75;;;32.15;;
82292;SDS011;71892;14.836;105.234;2024-03-06T11:31:01;46.85;;;18.85;;
82292;SDS011;71892;14.836;105.234;2024-03-06T11:33:28;35.40;;;17.05;;
82292;SDS011;71892;14.836;105.234;2024-03-06T11:36:22;45.47;;;20.65;;
82292;SDS011;71892;14.836;105.234;2024-03-06T11:41:23;44.85;;;16.55;;
82292;SDS011;71892;14.836;105.234;2024-03-06T11:43:59;35.25;;;16.35;;
82292;SDS011;71892;14.836;105.234;2024-03-06T11:46:47;37.13;;;16.73;;
82292;SDS011;71892;14.836;105.234;2024-03-06T11:49:15;33.58;;;15.73;;
82292;SDS011;71892;14.836;105.234;2024-03-06T11:51:46;27.70;;;15.95;;
82292;SDS011;71892;14.836;105.234;2024-03-06T11:54:14;31.85;;;15.88;;
82292;SDS011;71892;14.836;105.234;2024-03-06T11:56:43;23.65;;;14.90;;
82292;SDS011;71892;14.836;105.234;2024-03-06T11:59:12;25.35;;;16.13;;
82292;SDS011;71892;14.836;105.234;2024-03-06T12:01:40;36.85;;;17.35;;
82292;SDS011;71892;14.836;105.234;2024-03-06T12:04:07;31.58;;;16.40;;
82292;SDS011;71892;14.836;105.234;2024-03-06T12:06:35;32.92;;;18.80;;
82292;SDS011;71892;14.836;105.234;2024-03-06T12:09:03;30.00;;;15.70;;
82292;SDS011;71892;14.836;105.234;2024-03-06T12:11:29;41.38;;;16.38;;
82292;SDS011;71892;14.836;105.234;2024-03-06T12:13:56;28.08;;;16.77;;
82292;SDS011;71892;14.836;105.234;2024-03-06T12:16:26;35.40;;;17.75;;
82292;SDS011;71892;14.836;105.234;2024-03-06T12:18:55;25.40;;;15.90;;
82292;SDS011;71892;14.836;105.234;2024-03-06T12:21:38;24.10;;;17.83;;
82292;SDS011;71892;14.836;105.234;2024-03-06T12:24:05;28.35;;;16.02;;
82292;SDS011;71892;14.836;105.234;2024-03-06T12:26:36;28.40;;;16.02;;
82292;SDS011;71892;14.836;105.234;2024-03-06T12:29:06;28.98;;;17.80;;
82292;SDS011;71892;14.836;105.234;2024-03-06T12:31:41;34.10;;;18.45;;
82292;SDS011;71892;14.836;105.234;2024-03-06T12:34:08;31.00;;;17.83;;
82292;SDS011;71892;14.836;105.234;2024-03-06T12:36:43;34.50;;;19.08;;
82292;SDS011;71892;14.836;105.234;2024-03-06T12:39:09;30.10;;;17.77;;
82292;SDS011;71892;14.836;105.234;2024-03-06T12:41:39;28.20;;;17.02;;
82292;SDS011;71892;14.836;105.234;2024-03-06T12:44:06;35.28;;;21.70;;
82292;SDS011;71892;14.836;105.234;2024-03-06T12:46:35;35.15;;;22.17;;
82292;SDS011;71892;14.836;105.234;2024-03-06T12:49:01;38.92;;;20.83;;
82292;SDS011;71892;14.836;105.234;2024-03-06T12:51:28;39.08;;;23.90;;
82292;SDS011;71892;14.836;105.234;2024-03-06T12:53:54;59.20;;;34.25;;
82292;SDS011;71892;14.836;105.234;2024-03-06T12:56:21;69.32;;;37.25;;
82292;SDS011;71892;14.836;105.234;2024-03-06T12:58:47;138.82;;;70.78;;
82292;SDS011;71892;14.836;105.234;2024-03-06T13:01:14;115.75;;;53.00;;
82292;SDS011;71892;14.836;105.234;2024-03-06T13:03:43;45.50;;;24.20;;
82292;SDS011;71892;14.836;105.234;2024-03-06T13:06:10;41.78;;;20.42;;
82292;SDS011;71892;14.836;105.234;2024-03-06T13:08:37;45.58;;;24.10;;
82292;SDS011;71892;14.836;105.234;2024-03-06T13:11:06;38.22;;;20.77;;
82292;SDS011;71892;14.836;105.234;2024-03-06T13:13:34;43.88;;;23.67;;
82292;SDS011;71892;14.836;105.234;2024-03-06T13:16:01;46.10;;;21.05;;
82292;SDS011;71892;14.836;105.234;2024-03-06T13:18:28;36.25;;;20.55;;
82292;SDS011;71892;14.836;105.234;2024-03-06T13:20:55;41.55;;;22.05;;
82292;SDS011;71892;14.836;105.234;2024-03-06T13:23:23;47.30;;;23.45;;
82292;SDS011;71892;14.836;105.234;2024-03-06T13:25:50;42.53;;;23.83;;
82292;SDS011;71892;14.836;105.234;2024-03-06T13:28:19;37.60;;;22.83;;
82292;SDS011;71892;14.836;105.234;2024-03-06T13:30:46;49.75;;;22.85;;
82292;SDS011;71892;14.836;105.234;2024-03-06T13:33:13;37.80;;;21.45;;
82292;SDS011;71892;14.836;105.234;2024-03-06T13:35:39;43.40;;;20.95;;
82292;SDS011;71892;14.836;105.234;2024-03-06T13:38:06;36.60;;;23.15;;
82292;SDS011;71892;14.836;105.234;2024-03-06T13:40:33;44.97;;;23.88;;
82292;SDS011;71892;14.836;105.234;2024-03-06T13:43:02;39.92;;;22.23;;
82292;SDS011;71892;14.836;105.234;2024-03-06T13:45:28;35.58;;;22.08;;
82292;SDS011;71892;14.836;105.234;2024-03-06T13:47:55;42.85;;;21.95;;
82292;SDS011;71892;14.836;105.234;2024-03-06T13:50:21;31.13;;;21.30;;
82292;SDS011;71892;14.836;105.234;2024-03-06T13:52:50;36.85;;;21.35;;
82292;SDS011;71892;14.836;105.234;2024-03-06T13:55:17;36.17;;;22.17;;
82292;SDS011;71892;14.836;105.234;2024-03-06T13:57:43;36.60;;;21.83;;
82292;SDS011;71892;14.836;105.234;2024-03-06T14:00:10;37.53;;;21.48;;
82292;SDS011;71892;14.836;105.234;2024-03-06T14:02:43;35.38;;;22.83;;
82292;SDS011;71892;14.836;105.234;2024-03-06T14:05:13;38.65;;;22.05;;
82292;SDS011;71892;14.836;105.234;2024-03-06T14:07:41;34.30;;;23.17;;
82292;SDS011;71892;14.836;105.234;2024-03-06T14:10:08;38.35;;;21.90;;
82292;SDS011;71892;14.836;105.234;2024-03-06T14:12:35;38.72;;;23.08;;
82292;SDS011;71892;14.836;105.234;2024-03-06T14:15:05;38.05;;;21.95;;
82292;SDS011;71892;14.836;105.234;2024-03-06T14:17:40;47.60;;;22.48;;
82292;SDS011;71892;14.836;105.234;2024-03-06T14:20:07;43.80;;;21.90;;